Terminal Aerodrome Forecast
Issued by NWS Goodland, KS

Home | Current Version | Previous Version | Text Only | Print | Product List | Glossary On
Versions: 1 2 3 4 5 6 7 8 9 10 11 12 13 14 15 16 17 18 19
495
FTUS43 KGLD 221357 AAA
TAFGLD
TAF AMD
KGLD 221357Z 2214/2312 17020G24KT P6SM SCT012
     FM230000 16022G30KT P6SM VCTS SCT080CB
     FM230500 19020G27KT P6SM VCSH SCT080
     FM230600 20018G25KT P6SM SCT070
     FM230800 29012KT P6SM SCT110=

USA.gov is the U.S. government's official web portal to all federal, state and local government web resources and services.